Napas, Russia
Current Conditions -  °F | °C
As of 12:30 PM on Sunday 21 Dec 2014 (Local Time) from USNN Reporting Station
Light Snow Light Snow  
Wind Chill:   Ceiling: 4200
Heat Index: 18°   Visibility: 4mi
Dew Point: 14°   Wind: 7mph
Humidity: 86%   Direction: 190°S
Pressure: 29.83"   Gusts: NA
Location:  59.85°N, 81.97°E
Report Text: USNN 210530Z 19003MPS 6000 -SN OVC042 M08/M10 Q1010 NOSIG RMKQFE752 21450537
Loading
Personal Weather Stations






























Interactive Weather Map New forecast layout! Learn more

10-Day Weather Forecast

Advertisements
Track Severe Weather on mobile